createdAt,value
2023-01-09T00:01:36.303Z,97618.75
2023-01-09T00:04:05.167Z,97611.59
2023-01-09T00:06:33.604Z,97609.47
2023-01-09T00:09:02.015Z,97605.13
2023-01-09T00:11:30.331Z,97599.59
2023-01-09T00:13:58.905Z,97603.09
2023-01-09T00:16:27.380Z,97591.91
2023-01-09T00:18:56.962Z,97588.44
2023-01-09T00:21:25.424Z,97587.81
2023-01-09T00:23:54.633Z,97581.66
2023-01-09T00:26:23.206Z,97587.22
2023-01-09T00:28:52.227Z,97590.66
2023-01-09T00:31:20.906Z,97585.44
2023-01-09T00:34:05.987Z,97583.91
2023-01-09T00:36:34.449Z,97575.56
2023-01-09T00:39:02.876Z,97574.25
2023-01-09T00:41:42.931Z,97579.50
2023-01-09T00:44:14.045Z,97566.88
2023-01-09T00:46:48.193Z,97573.31
2023-01-09T00:49:16.638Z,97570.88
2023-01-09T00:51:44.963Z,97580.53
2023-01-09T00:54:15.161Z,97588.94
2023-01-09T00:56:43.442Z,97580.19
2023-01-09T00:59:12.631Z,97580.06
2023-01-09T01:01:41.097Z,97577.19
2023-01-09T01:04:28.299Z,97571.94
2023-01-09T01:07:15.032Z,97569.09
2023-01-09T01:09:43.463Z,97569.22
2023-01-09T01:12:11.798Z,97565.75
2023-01-09T01:14:40.235Z,97568.97
2023-01-09T01:17:08.657Z,97560.94
2023-01-09T01:19:37.248Z,97559.59
2023-01-09T01:22:05.620Z,97555.44
2023-01-09T01:24:34.066Z,97561.03
2023-01-09T01:27:02.446Z,97553.72
2023-01-09T01:29:30.834Z,97550.41
2023-01-09T01:31:59.340Z,97542.59
2023-01-09T01:34:29.271Z,97538.50
2023-01-09T01:36:57.705Z,97533.97
2023-01-09T01:39:26.242Z,97543.22
2023-01-09T01:41:54.559Z,97524.25
2023-01-09T01:45:00.346Z,97540.16
2023-01-09T01:48:07.638Z,97530.41
2023-01-09T01:50:38.000Z,97517.25
2023-01-09T01:53:13.853Z,97526.16
2023-01-09T01:56:07.279Z,97512.50
2023-01-09T01:58:39.397Z,97509.47
2023-01-09T02:01:08.001Z,97508.66
2023-01-09T02:03:36.415Z,97515.00
2023-01-09T02:06:05.247Z,97513.16
2023-01-09T02:08:33.636Z,97502.53
2023-01-09T02:11:02.920Z,97504.38
2023-01-09T02:13:31.328Z,97490.41
2023-01-09T02:16:13.345Z,97504.22
2023-01-09T02:19:01.659Z,97493.63
2023-01-09T02:21:40.320Z,97472.00
2023-01-09T02:24:21.087Z,97492.38
2023-01-09T02:27:13.140Z,97476.97
2023-01-09T02:30:00.195Z,97485.59
2023-01-09T02:32:50.475Z,97478.47
2023-01-09T02:35:28.242Z,97475.38
2023-01-09T02:38:21.380Z,97481.72
2023-01-09T02:40:56.915Z,97491.16
2023-01-09T02:43:25.265Z,97477.78
2023-01-09T02:45:53.647Z,97492.88
2023-01-09T02:48:22.123Z,97487.03
2023-01-09T02:50:53.378Z,97494.69
2023-01-09T02:53:47.182Z,97482.81
2023-01-09T02:56:40.976Z,97484.31
2023-01-09T02:59:33.583Z,97474.03
2023-01-09T03:02:20.000Z,97483.00
2023-01-09T03:05:03.309Z,97480.38
2023-01-09T03:07:43.962Z,97479.28
2023-01-09T03:10:21.792Z,97484.97
2023-01-09T03:12:52.123Z,97482.94
2023-01-09T03:15:22.520Z,97477.78
2023-01-09T03:17:51.894Z,97476.19
2023-01-09T03:20:22.823Z,97471.44
2023-01-09T03:22:55.725Z,97475.63
2023-01-09T03:25:24.476Z,97482.78
2023-01-09T03:27:56.234Z,97474.84
2023-01-09T03:30:24.746Z,97469.31
2023-01-09T03:32:53.173Z,97464.00
2023-01-09T03:35:22.211Z,97463.59
2023-01-09T03:37:52.851Z,97470.09
2023-01-09T03:40:22.447Z,97475.59
2023-01-09T03:42:51.100Z,97474.13
2023-01-09T03:45:19.849Z,97475.53
2023-01-09T03:47:48.358Z,97485.56
2023-01-09T03:50:16.931Z,97486.41
2023-01-09T03:52:45.284Z,97485.34
2023-01-09T03:55:15.525Z,97485.41
2023-01-09T03:57:44.226Z,97499.44
2023-01-09T04:00:13.643Z,97494.81
2023-01-09T04:02:42.742Z,97489.25
2023-01-09T04:05:11.139Z,97484.00
2023-01-09T04:07:39.590Z,97481.41
2023-01-09T04:10:08.630Z,97466.50
2023-01-09T04:12:36.989Z,97480.31
2023-01-09T04:15:05.879Z,97479.91
2023-01-09T04:17:34.320Z,97481.09
2023-01-09T04:20:02.772Z,97482.97
2023-01-09T04:22:31.729Z,97485.94
2023-01-09T04:25:00.139Z,97491.75
2023-01-09T04:27:28.664Z,97494.06
2023-01-09T04:29:57.075Z,97492.28
2023-01-09T04:32:27.860Z,97493.97
2023-01-09T04:34:56.333Z,97485.56
2023-01-09T04:37:24.885Z,97496.56
2023-01-09T04:39:56.222Z,97500.84
2023-01-09T04:42:24.871Z,97499.53
2023-01-09T04:44:54.373Z,97497.13
2023-01-09T04:47:24.039Z,97496.41
2023-01-09T04:49:52.610Z,97493.59
2023-01-09T04:52:20.999Z,97500.41
2023-01-09T04:54:49.548Z,97492.94
2023-01-09T04:57:18.038Z,97498.03
2023-01-09T04:59:47.987Z,97491.84
2023-01-09T05:02:16.455Z,97491.47
2023-01-09T05:04:44.918Z,97488.25
2023-01-09T05:07:14.222Z,97475.94
2023-01-09T05:09:43.319Z,97468.78
2023-01-09T05:12:12.709Z,97475.44
2023-01-09T05:14:41.055Z,97476.94
2023-01-09T05:17:09.539Z,97480.94
2023-01-09T05:19:38.206Z,97471.34
2023-01-09T05:22:06.621Z,97474.94
2023-01-09T05:24:35.095Z,97478.09
2023-01-09T05:27:03.749Z,97471.13
2023-01-09T05:29:32.230Z,97468.16
2023-01-09T05:32:00.736Z,97475.22
2023-01-09T05:34:29.493Z,97474.66
2023-01-09T05:36:57.934Z,97468.06
2023-01-09T05:39:26.467Z,97468.03
2023-01-09T05:41:55.084Z,97473.97
2023-01-09T05:44:23.392Z,97471.28
2023-01-09T05:46:51.791Z,97460.16
2023-01-09T05:49:20.125Z,97468.00
2023-01-09T05:51:48.534Z,97471.00
2023-01-09T05:54:17.011Z,97469.00
2023-01-09T05:56:45.393Z,97478.94
2023-01-09T05:59:13.793Z,97470.28
2023-01-09T06:01:42.227Z,97490.78
2023-01-09T06:04:10.632Z,97474.00
2023-01-09T06:06:40.112Z,97473.31
2023-01-09T06:09:08.627Z,97470.88
2023-01-09T06:11:38.635Z,97469.41
2023-01-09T06:14:07.072Z,97456.38
2023-01-09T06:16:35.402Z,97461.41
2023-01-09T06:19:03.851Z,97451.28
2023-01-09T06:21:33.007Z,97454.47
2023-01-09T06:24:01.470Z,97458.97
2023-01-09T06:26:29.891Z,97462.72
2023-01-09T06:28:58.257Z,97456.34
2023-01-09T06:31:26.762Z,97457.19
2023-01-09T06:33:55.134Z,97451.66
2023-01-09T06:36:23.554Z,97452.69
2023-01-09T06:38:51.938Z,97453.22
2023-01-09T06:41:20.288Z,97455.47
2023-01-09T06:43:48.682Z,97448.94
2023-01-09T06:46:17.028Z,97449.28
2023-01-09T06:48:45.536Z,97448.41
2023-01-09T06:51:14.792Z,97439.00
2023-01-09T06:53:43.177Z,97448.69
2023-01-09T06:56:12.070Z,97453.81
2023-01-09T06:58:41.072Z,97452.59
2023-01-09T07:01:10.371Z,97441.72
2023-01-09T07:03:39.452Z,97438.97
2023-01-09T07:06:08.520Z,97434.84
2023-01-09T07:08:37.921Z,97427.78
2023-01-09T07:11:07.136Z,97421.88
2023-01-09T07:13:38.650Z,97429.97
2023-01-09T07:16:07.798Z,97415.06
2023-01-09T07:18:37.530Z,97409.94
2023-01-09T07:21:10.183Z,97406.47
2023-01-09T07:23:39.173Z,97417.66
2023-01-09T07:26:08.403Z,97415.56
2023-01-09T07:28:37.293Z,97417.63
2023-01-09T07:31:08.054Z,97417.81
2023-01-09T07:33:36.503Z,97415.91
2023-01-09T07:36:05.449Z,97422.53
2023-01-09T07:38:36.779Z,97412.25
2023-01-09T07:41:06.791Z,97412.47
2023-01-09T07:43:36.306Z,97407.66
2023-01-09T07:46:05.532Z,97399.50
2023-01-09T07:48:34.927Z,97407.09
2023-01-09T07:51:04.079Z,97405.25
2023-01-09T07:53:32.428Z,97403.25
2023-01-09T07:56:01.537Z,97399.47
2023-01-09T07:58:30.117Z,97404.50
2023-01-09T08:01:00.138Z,97404.56
2023-01-09T08:03:28.859Z,97413.66
2023-01-09T08:05:58.268Z,97400.69
2023-01-09T08:08:26.998Z,97399.88
2023-01-09T08:10:57.211Z,97399.31
2023-01-09T08:13:26.505Z,97403.94
2023-01-09T08:15:55.485Z,97399.22
2023-01-09T08:18:24.999Z,97406.94
2023-01-09T08:20:53.903Z,97402.47
2023-01-09T08:23:23.704Z,97405.84
2023-01-09T08:25:54.006Z,97400.44
2023-01-09T08:28:22.397Z,97404.00
2023-01-09T08:30:52.554Z,97414.56
2023-01-09T08:33:21.078Z,97418.63
2023-01-09T08:35:50.629Z,97414.94
2023-01-09T08:38:20.323Z,97416.59
2023-01-09T08:40:50.076Z,97413.81
2023-01-09T08:43:37.356Z,97416.97
2023-01-09T08:46:45.283Z,97416.13
2023-01-09T08:49:14.797Z,97409.78
2023-01-09T08:51:44.116Z,97415.84
2023-01-09T08:54:13.513Z,97412.72
2023-01-09T08:56:42.813Z,97407.69
2023-01-09T08:59:12.410Z,97398.06
2023-01-09T09:01:41.162Z,97394.66
2023-01-09T09:04:10.433Z,97392.31
2023-01-09T09:06:39.559Z,97391.44
2023-01-09T09:09:09.515Z,97392.41
2023-01-09T09:11:38.059Z,97396.25
2023-01-09T09:14:27.149Z,97392.88
2023-01-09T09:16:55.829Z,97396.47
2023-01-09T09:19:25.286Z,97377.03
2023-01-09T09:21:54.111Z,97373.06
2023-01-09T09:24:23.084Z,97379.16
2023-01-09T09:26:53.033Z,97370.59
2023-01-09T09:29:23.021Z,97364.94
2023-01-09T09:31:52.341Z,97362.69
2023-01-09T09:34:20.952Z,97365.25
2023-01-09T09:36:50.319Z,97352.03
2023-01-09T09:39:18.912Z,97347.06
2023-01-09T09:42:33.285Z,97348.03
2023-01-09T09:45:29.147Z,97349.53
2023-01-09T09:48:22.758Z,97335.63
2023-01-09T09:51:03.722Z,97342.94
2023-01-09T09:54:07.906Z,97341.41
2023-01-09T09:56:42.260Z,97338.50
2023-01-09T09:59:18.643Z,97335.75
2023-01-09T10:01:52.475Z,97314.16
2023-01-09T10:04:21.838Z,97327.88
2023-01-09T10:07:16.637Z,97307.69
2023-01-09T10:09:55.071Z,97302.94
2023-01-09T10:12:46.714Z,97304.13
2023-01-09T10:15:21.693Z,97287.34
2023-01-09T10:18:19.101Z,97283.25
2023-01-09T10:20:55.754Z,97271.59
2023-01-09T10:23:46.653Z,97268.72
2023-01-09T10:26:34.818Z,97263.84
2023-01-09T10:29:16.310Z,97252.72
2023-01-09T10:32:01.401Z,97253.28
2023-01-09T10:34:48.527Z,97242.75
2023-01-09T10:37:24.166Z,97233.88
2023-01-09T10:39:52.994Z,97238.53
2023-01-09T10:43:10.067Z,97223.31
2023-01-09T10:45:51.482Z,97231.31
2023-01-09T10:48:22.009Z,97220.00
2023-01-09T10:50:50.964Z,97208.50
2023-01-09T10:53:24.295Z,97211.41
2023-01-09T10:55:55.727Z,97209.56
2023-01-09T10:58:24.273Z,97206.16
2023-01-09T11:00:52.795Z,97207.19
2023-01-09T11:03:22.625Z,97185.59
2023-01-09T11:05:56.894Z,97187.28
2023-01-09T11:08:38.649Z,97168.22
2023-01-09T11:11:07.099Z,97160.50
2023-01-09T11:13:36.988Z,97158.47
2023-01-09T11:16:24.097Z,97159.38
2023-01-09T11:18:58.286Z,97156.63
2023-01-09T11:21:27.153Z,97156.41
2023-01-09T11:23:56.440Z,97155.78
2023-01-09T11:26:28.684Z,97156.09
2023-01-09T11:29:19.515Z,97156.16
2023-01-09T11:32:02.185Z,97151.13
2023-01-09T11:34:34.721Z,97146.59
2023-01-09T11:37:04.937Z,97135.50
2023-01-09T11:39:34.557Z,97133.66
2023-01-09T11:42:04.745Z,97136.91
2023-01-09T11:44:33.348Z,97130.03
2023-01-09T11:47:01.993Z,97134.91
2023-01-09T11:49:31.639Z,97114.53
2023-01-09T11:52:20.745Z,97123.09
2023-01-09T11:54:52.928Z,97115.13
2023-01-09T11:57:23.539Z,97110.09
2023-01-09T11:59:52.101Z,97107.06
2023-01-09T12:02:31.854Z,97101.22
2023-01-09T12:05:18.109Z,97101.41
2023-01-09T12:07:49.641Z,97103.03
2023-01-09T12:10:40.032Z,97098.97
2023-01-09T12:13:45.865Z,97080.78
2023-01-09T12:16:27.481Z,97078.78
2023-01-09T12:18:58.019Z,97069.03
2023-01-09T12:21:36.689Z,97069.38
2023-01-09T12:24:23.068Z,97059.00
2023-01-09T12:27:06.632Z,97052.53
2023-01-09T12:29:42.305Z,97060.09
2023-01-09T12:32:55.790Z,97059.16
2023-01-09T12:35:46.313Z,97053.13
2023-01-09T12:38:37.440Z,97043.91
2023-01-09T12:41:22.198Z,97034.81
2023-01-09T12:43:57.932Z,97030.56
2023-01-09T12:46:29.071Z,97031.91
2023-01-09T12:49:24.432Z,97027.56
2023-01-09T12:52:01.683Z,97023.06
2023-01-09T12:54:44.867Z,97022.84
2023-01-09T12:57:20.377Z,97030.25
2023-01-09T12:59:54.520Z,97024.09
2023-01-09T13:02:28.691Z,97027.16
2023-01-09T13:05:02.960Z,97029.25
2023-01-09T13:07:59.446Z,97028.88
2023-01-09T13:10:34.341Z,97027.38
2023-01-09T13:13:25.598Z,97025.88
2023-01-09T13:16:06.345Z,97023.84
2023-01-09T13:18:41.494Z,97028.44
2023-01-09T13:21:10.353Z,97019.03
2023-01-09T13:24:00.164Z,97018.88
2023-01-09T13:26:31.641Z,97016.19
2023-01-09T13:29:04.653Z,97019.78
2023-01-09T13:32:07.863Z,97017.13
2023-01-09T13:34:37.155Z,97005.03
2023-01-09T13:37:05.707Z,97004.50
2023-01-09T13:39:38.132Z,96995.94
2023-01-09T13:42:25.765Z,97004.78
2023-01-09T13:44:56.213Z,97001.31
2023-01-09T13:47:28.381Z,96997.13
2023-01-09T13:50:02.083Z,96987.94
2023-01-09T13:52:40.869Z,96996.63
2023-01-09T13:55:11.969Z,96998.34
2023-01-09T13:57:43.737Z,97008.91
2023-01-09T14:00:15.288Z,96998.03
2023-01-09T14:02:47.120Z,96990.59
2023-01-09T14:05:36.859Z,96992.25
2023-01-09T14:08:07.240Z,96983.78
2023-01-09T14:10:38.639Z,96975.66
2023-01-09T14:13:09.416Z,96967.44
2023-01-09T14:15:41.990Z,96969.50
2023-01-09T14:18:23.340Z,96954.28
2023-01-09T14:23:54.344Z,96944.06
2023-01-09T14:26:26.405Z,96956.41
2023-01-09T14:29:25.280Z,96952.13
2023-01-09T14:31:53.999Z,96958.28
2023-01-09T14:34:32.313Z,96951.59
2023-01-09T14:37:01.704Z,96943.59
2023-01-09T14:39:31.630Z,96947.34
2023-01-09T14:42:09.630Z,96941.97
2023-01-09T14:44:59.708Z,96954.38
2023-01-09T14:47:39.902Z,96957.84
2023-01-09T14:50:12.825Z,96952.50
2023-01-09T14:52:47.021Z,96960.03
2023-01-09T14:55:24.000Z,96955.16
2023-01-09T14:57:55.091Z,96949.84
2023-01-09T15:00:23.896Z,96960.81
2023-01-09T15:02:52.501Z,96947.59
2023-01-09T15:05:25.719Z,96960.59
2023-01-09T15:07:59.372Z,96965.63
2023-01-09T15:10:36.265Z,96946.91
2023-01-09T15:13:06.724Z,96946.97
2023-01-09T15:15:36.331Z,96948.28
2023-01-09T15:18:07.064Z,96932.75
2023-01-09T15:20:35.901Z,96929.25
2023-01-09T15:23:05.799Z,96923.63
2023-01-09T15:25:40.250Z,96920.13
2023-01-09T15:28:27.322Z,96898.69
2023-01-09T15:31:23.283Z,96912.03
2023-01-09T15:33:53.962Z,96900.88
2023-01-09T15:36:24.568Z,96892.88
2023-01-09T15:38:53.419Z,96891.25
2023-01-09T15:41:58.813Z,96885.88
2023-01-09T15:44:28.984Z,96886.47
2023-01-09T15:46:58.815Z,96884.53
2023-01-09T15:49:27.606Z,96894.03
2023-01-09T15:51:58.163Z,96877.81
2023-01-09T15:54:31.947Z,96885.56
2023-01-09T15:57:35.866Z,96883.78
2023-01-09T16:00:25.347Z,96874.91
2023-01-09T16:03:12.263Z,96864.94
2023-01-09T16:05:46.525Z,96879.56
2023-01-09T16:08:30.395Z,96883.59
2023-01-09T16:11:08.220Z,96881.38
2023-01-09T16:13:45.982Z,96857.22
2023-01-09T16:16:15.537Z,96869.22
2023-01-09T16:18:54.706Z,96865.47
2023-01-09T16:21:24.589Z,96854.78
2023-01-09T16:24:02.285Z,96850.66
2023-01-09T16:26:34.766Z,96846.88
2023-01-09T16:29:28.980Z,96839.03
2023-01-09T16:32:02.155Z,96844.44
2023-01-09T16:34:32.357Z,96837.41
2023-01-09T16:37:05.373Z,96834.66
2023-01-09T16:39:34.741Z,96839.75
2023-01-09T16:42:33.244Z,96832.03
2023-01-09T16:45:03.122Z,96828.16
2023-01-09T16:47:48.653Z,96817.22
2023-01-09T16:50:34.453Z,96803.00
2023-01-09T16:53:39.659Z,96813.63
2023-01-09T16:56:45.724Z,96808.38
2023-01-09T16:59:33.841Z,96811.72
2023-01-09T17:02:28.227Z,96800.09
2023-01-09T17:05:02.499Z,96791.13
2023-01-09T17:07:32.578Z,96807.66
2023-01-09T17:10:02.469Z,96796.16
2023-01-09T17:12:33.664Z,96812.13
2023-01-09T17:15:03.206Z,96800.22
2023-01-09T17:17:31.960Z,96803.50
2023-01-09T17:20:01.490Z,96810.50
2023-01-09T17:22:29.968Z,96791.50
2023-01-09T17:25:17.316Z,96810.81
2023-01-09T17:28:04.288Z,96804.13
2023-01-09T17:30:34.721Z,96792.16
2023-01-09T17:33:07.003Z,96802.28
2023-01-09T17:35:37.940Z,96804.66
2023-01-09T17:38:17.930Z,96793.81
2023-01-09T17:40:49.370Z,96795.97
2023-01-09T17:43:19.760Z,96792.88
2023-01-09T17:45:49.484Z,96791.91
2023-01-09T17:48:22.063Z,96802.47
2023-01-09T17:50:58.008Z,96792.56
2023-01-09T17:53:32.256Z,96792.72
2023-01-09T17:56:03.318Z,96792.94
2023-01-09T17:58:32.759Z,96796.75
2023-01-09T18:01:04.118Z,96801.56
2023-01-09T18:03:34.777Z,96789.94
2023-01-09T18:06:04.832Z,96797.75
2023-01-09T18:08:33.871Z,96785.34
2023-01-09T18:11:05.949Z,96804.19
2023-01-09T18:13:36.319Z,96801.50
2023-01-09T18:16:08.555Z,96789.72
2023-01-09T18:18:40.701Z,96788.16
2023-01-09T18:21:14.005Z,96786.53
2023-01-09T18:23:49.992Z,96799.84
2023-01-09T18:26:23.793Z,96795.69
2023-01-09T18:29:00.481Z,96790.78
2023-01-09T18:31:36.697Z,96793.09
2023-01-09T18:34:09.476Z,96793.81
2023-01-09T18:36:41.735Z,96782.91
2023-01-09T18:39:14.010Z,96786.13
2023-01-09T18:41:46.835Z,96793.66
2023-01-09T18:44:18.961Z,96797.91
2023-01-09T18:46:49.712Z,96798.50
2023-01-09T18:49:20.865Z,96789.03
2023-01-09T18:51:50.629Z,96792.72
2023-01-09T18:54:20.914Z,96772.28
2023-01-09T18:56:51.023Z,96784.66
2023-01-09T18:59:21.456Z,96780.66
2023-01-09T19:01:51.266Z,96790.72
2023-01-09T19:04:20.489Z,96766.53
2023-01-09T19:06:51.504Z,96767.94
2023-01-09T19:09:21.599Z,96759.47
2023-01-09T19:11:51.913Z,96771.09
2023-01-09T19:14:21.328Z,96767.91
2023-01-09T19:16:50.801Z,96748.69
2023-01-09T19:19:21.489Z,96752.94
2023-01-09T19:21:51.018Z,96751.31
2023-01-09T19:24:21.215Z,96755.03
2023-01-09T19:26:50.375Z,96751.31
2023-01-09T19:29:19.811Z,96756.88
2023-01-09T19:31:49.550Z,96757.25
2023-01-09T19:34:18.629Z,96747.63
2023-01-09T19:36:48.168Z,96747.66
2023-01-09T19:39:18.082Z,96748.69
2023-01-09T19:41:47.906Z,96723.75
2023-01-09T19:44:19.528Z,96739.97
2023-01-09T19:46:48.254Z,96722.84
2023-01-09T19:49:20.023Z,96709.78
2023-01-09T19:51:51.641Z,96716.88
2023-01-09T19:54:20.588Z,96704.53
2023-01-09T19:56:49.144Z,96698.47
2023-01-09T19:59:18.080Z,96723.25
2023-01-09T20:01:48.339Z,96718.66
2023-01-09T20:04:17.863Z,96718.66
2023-01-09T20:06:47.567Z,96716.28
2023-01-09T20:09:17.879Z,96710.97
2023-01-09T20:11:46.462Z,96724.00
2023-01-09T20:14:16.178Z,96716.25
2023-01-09T20:16:45.520Z,96699.75
2023-01-09T20:19:15.423Z,96703.59
2023-01-09T20:21:44.330Z,96701.16
2023-01-09T20:24:15.326Z,96697.50
2023-01-09T20:26:46.607Z,96709.34
2023-01-09T20:29:15.260Z,96719.00
2023-01-09T20:31:43.874Z,96704.13
2023-01-09T20:34:13.265Z,96712.31
2023-01-09T20:36:41.935Z,96715.69
2023-01-09T20:39:12.074Z,96678.91
2023-01-09T20:41:40.791Z,96680.09
2023-01-09T20:44:12.217Z,96683.06
2023-01-09T20:46:43.198Z,96665.44
2023-01-09T20:49:13.388Z,96653.22
2023-01-09T20:51:44.303Z,96656.28
2023-01-09T20:54:13.989Z,96665.66
2023-01-09T20:56:42.443Z,96647.91
2023-01-09T20:59:17.338Z,96631.41
2023-01-09T21:01:46.240Z,96665.22
2023-01-09T21:04:14.945Z,96664.25
2023-01-09T21:06:44.399Z,96620.13
2023-01-09T21:09:12.879Z,96637.94
2023-01-09T21:11:41.356Z,96637.22
2023-01-09T21:14:09.808Z,96651.56
2023-01-09T21:16:39.062Z,96661.69
2023-01-09T21:19:07.439Z,96656.75
2023-01-09T21:21:35.924Z,96652.47
2023-01-09T21:24:04.906Z,96651.53
2023-01-09T21:26:33.450Z,96664.44
2023-01-09T21:29:02.311Z,96649.19
2023-01-09T21:31:35.042Z,96652.59
2023-01-09T21:34:05.538Z,96663.25
2023-01-09T21:36:35.787Z,96661.56
2023-01-09T21:39:08.202Z,96658.81
2023-01-09T21:41:55.284Z,96652.88
2023-01-09T21:44:43.154Z,96662.97
2023-01-09T21:47:11.606Z,96659.94
2023-01-09T21:49:40.944Z,96655.16
2023-01-09T21:52:10.025Z,96642.44
2023-01-09T21:54:38.453Z,96652.78
2023-01-09T21:57:06.940Z,96647.53
2023-01-09T21:59:35.407Z,96631.41
2023-01-09T22:02:03.740Z,96624.66
2023-01-09T22:04:32.733Z,96618.09
2023-01-09T22:07:01.099Z,96621.66
2023-01-09T22:09:30.775Z,96611.81
2023-01-09T22:11:59.679Z,96594.50
2023-01-09T22:14:28.131Z,96611.13
2023-01-09T22:16:56.559Z,96628.38
2023-01-09T22:19:27.333Z,96630.06
2023-01-09T22:21:56.452Z,96630.16
2023-01-09T22:24:24.777Z,96607.50
2023-01-09T22:26:53.897Z,96596.81
2023-01-09T22:29:22.711Z,96601.41
2023-01-09T22:31:51.349Z,96607.47
2023-01-09T22:34:20.066Z,96610.97
2023-01-09T22:36:49.229Z,96592.59
2023-01-09T22:39:18.833Z,96594.03
2023-01-09T22:41:51.420Z,96594.53
2023-01-09T22:44:21.526Z,96604.22
2023-01-09T22:46:49.966Z,96610.38
2023-01-09T22:49:18.350Z,96624.63
2023-01-09T22:51:47.825Z,96619.16
2023-01-09T22:54:16.240Z,96627.84
2023-01-09T22:56:44.576Z,96644.72
2023-01-09T22:59:12.925Z,96640.75
2023-01-09T23:01:41.381Z,96636.03
2023-01-09T23:04:13.750Z,96637.00
2023-01-09T23:06:42.171Z,96612.41
2023-01-09T23:09:10.629Z,96613.47
2023-01-09T23:11:57.373Z,96621.50
2023-01-09T23:14:26.836Z,96613.25
2023-01-09T23:16:56.308Z,96617.03
2023-01-09T23:19:25.948Z,96622.41
2023-01-09T23:21:54.356Z,96621.06
2023-01-09T23:24:22.713Z,96623.19
2023-01-09T23:26:52.492Z,96624.84
2023-01-09T23:29:21.086Z,96602.50
2023-01-09T23:31:49.422Z,96604.63
2023-01-09T23:34:20.005Z,96586.47
2023-01-09T23:36:48.694Z,96586.69
2023-01-09T23:39:17.221Z,96596.59
2023-01-09T23:42:04.137Z,96588.13
2023-01-09T23:44:32.593Z,96570.53
2023-01-09T23:47:00.975Z,96576.34
2023-01-09T23:49:29.375Z,96578.56
2023-01-09T23:51:57.845Z,96571.50
2023-01-09T23:54:26.252Z,96576.03
2023-01-09T23:56:56.737Z,96578.03
2023-01-09T23:59:25.209Z,96571.16
